Time;durP1;ratioP1;P1;durP2;ratioP2;P2;SDS_P1;SDS_P2;PMS_P1;PMS_P2;Temp;Humidity;BMP_temperature;BMP_pressure;BME280_temperature;BME280_humidity;BME280_pressure;Samples;Min_cycle;Max_cycle;Signal;HPM_P1;HPM_P2
2021/08/20 00:01:13;;;;;;;7.53;6.13;;;16.90;99.90;;;;;;5004356;28;20448;-74
2021/08/20 00:03:39;;;;;;;7.75;6.00;;;17.00;99.90;;;;;;5012362;28;20361;-74
2021/08/20 00:06:05;;;;;;;11.82;6.00;;;17.10;99.90;;;;;;5011597;28;20025;-74
2021/08/20 00:08:31;;;;;;;6.95;6.20;;;17.20;99.90;;;;;;5001457;28;20032;-74
2021/08/20 00:10:56;;;;;;;7.20;6.45;;;17.10;99.90;;;;;;4999116;28;20026;-74
2021/08/20 00:13:22;;;;;;;9.02;6.18;;;17.20;99.90;;;;;;5008599;28;20545;-73
2021/08/20 00:15:48;;;;;;;9.15;6.85;;;17.20;99.90;;;;;;4997467;28;20023;-74
2021/08/20 00:18:13;;;;;;;7.13;6.40;;;17.10;99.90;;;;;;5001124;28;20018;-74
2021/08/20 00:20:40;;;;;;;7.95;6.05;;;17.00;99.90;;;;;;5010330;28;20384;-74
2021/08/20 00:23:05;;;;;;;9.00;6.88;;;16.90;99.90;;;;;;5007941;28;20487;-74
2021/08/20 00:25:31;;;;;;;7.45;6.47;;;16.80;99.90;;;;;;5010970;28;20034;-74
2021/08/20 00:27:57;;;;;;;9.07;6.55;;;16.90;99.90;;;;;;5009030;28;20022;-73
2021/08/20 00:30:22;;;;;;;8.45;6.78;;;16.80;99.90;;;;;;5011843;28;20028;-74
2021/08/20 00:32:48;;;;;;;6.88;6.10;;;16.80;99.90;;;;;;5005939;28;20078;-74
2021/08/20 00:35:14;;;;;;;8.00;5.95;;;16.90;99.90;;;;;;5000159;28;20018;-74
2021/08/20 00:37:39;;;;;;;7.35;6.65;;;16.90;99.90;;;;;;5000574;28;20018;-74
2021/08/20 00:40:06;;;;;;;8.48;6.47;;;16.90;99.90;;;;;;5011295;28;20389;-73
2021/08/20 00:42:32;;;;;;;7.72;6.38;;;16.90;99.90;;;;;;5009403;28;20049;-74
2021/08/20 00:44:58;;;;;;;7.03;6.32;;;16.90;99.90;;;;;;5011832;28;20033;-72
2021/08/20 00:47:24;;;;;;;6.97;6.22;;;17.00;99.90;;;;;;5006827;28;20030;-73
2021/08/20 00:49:50;;;;;;;8.13;6.85;;;17.10;99.90;;;;;;5002772;28;20065;-74
2021/08/20 00:52:17;;;;;;;8.60;6.90;;;17.00;99.90;;;;;;4998808;28;20096;-73
2021/08/20 00:54:43;;;;;;;7.53;6.22;;;16.80;99.90;;;;;;4996229;28;20033;-73
2021/08/20 00:57:09;;;;;;;7.97;7.00;;;16.80;99.90;;;;;;4989965;28;20026;-74
2021/08/20 00:59:34;;;;;;;8.82;6.93;;;16.90;99.90;;;;;;5003248;28;20018;-74
2021/08/20 01:02:02;;;;;;;6.85;6.15;;;16.80;99.90;;;;;;4994425;28;20497;-74
2021/08/20 01:04:27;;;;;;;7.40;6.65;;;16.70;99.90;;;;;;4990709;28;20026;-74
2021/08/20 01:06:56;;;;;;;10.63;6.38;;;16.80;99.90;;;;;;5005074;28;20485;-73
2021/08/20 01:09:23;;;;;;;7.40;6.70;;;16.70;99.90;;;;;;4992032;28;20026;-73
2021/08/20 01:11:49;;;;;;;7.10;6.40;;;16.60;99.90;;;;;;5006115;28;20066;-73
2021/08/20 01:14:35;;;;;;;7.75;6.85;;;16.70;99.90;;;;;;4993121;28;20034;-74
2021/08/20 01:17:06;;;;;;;7.20;6.50;;;16.70;99.90;;;;;;5000881;28;20029;-73
2021/08/20 01:19:32;;;;;;;8.48;6.35;;;16.70;99.90;;;;;;5000395;28;20030;-73
2021/08/20 01:21:59;;;;;;;7.65;6.38;;;16.80;99.90;;;;;;5002401;28;20031;-73
2021/08/20 01:24:26;;;;;;;7.65;6.78;;;16.70;99.90;;;;;;4996297;28;20034;-73
2021/08/20 01:26:52;;;;;;;10.90;6.43;;;16.70;99.90;;;;;;4995750;28;20027;-73
2021/08/20 01:29:19;;;;;;;8.15;6.72;;;16.60;99.90;;;;;;4998289;28;20030;-73
2021/08/20 01:31:46;;;;;;;8.48;6.30;;;16.70;99.90;;;;;;5015293;28;20026;-73
2021/08/20 01:34:12;;;;;;;9.98;6.80;;;16.70;99.90;;;;;;4999347;28;20052;-73
2021/08/20 01:36:38;;;;;;;7.63;6.93;;;16.70;99.90;;;;;;5003619;28;20462;-73
2021/08/20 01:39:04;;;;;;;9.73;7.10;;;16.60;99.90;;;;;;5015275;28;20106;-73
2021/08/20 01:41:30;;;;;;;7.28;6.57;;;16.70;99.90;;;;;;5015046;28;20426;-73
2021/08/20 01:43:58;;;;;;;7.93;6.50;;;16.70;99.90;;;;;;5015133;28;20408;-74
2021/08/20 01:46:25;;;;;;;8.38;6.40;;;16.80;99.90;;;;;;5015051;28;20097;-74
2021/08/20 01:48:58;;;;;;;7.03;6.32;;;16.90;99.90;;;;;;5013850;28;20026;-73
2021/08/20 01:51:25;;;;;;;7.63;6.82;;;16.90;99.90;;;;;;5013620;28;20439;-75
2021/08/20 01:53:52;;;;;;;7.80;7.03;;;16.80;99.90;;;;;;5014920;28;20034;-74
2021/08/20 01:56:25;;;;;;;8.90;6.95;;;16.80;99.90;;;;;;5013706;28;20113;-73
2021/08/20 01:58:52;;;;;;;8.32;6.82;;;16.70;99.90;;;;;;5013798;28;20029;-73
2021/08/20 02:01:18;;;;;;;8.35;7.00;;;16.70;99.90;;;;;;5001502;28;20396;-73
2021/08/20 02:03:43;;;;;;;7.93;7.13;;;16.60;99.90;;;;;;5013794;28;20026;-73
2021/08/20 02:06:09;;;;;;;9.60;6.90;;;16.60;99.90;;;;;;5002779;28;20034;-74
2021/08/20 02:08:35;;;;;;;7.60;6.90;;;16.70;99.90;;;;;;5008327;28;20023;-75
2021/08/20 02:11:01;;;;;;;8.05;7.22;;;16.90;99.90;;;;;;4998088;28;20084;-74
2021/08/20 02:13:26;;;;;;;9.52;7.43;;;16.80;99.90;;;;;;5010611;28;20476;-75
2021/08/20 02:15:52;;;;;;;8.32;7.10;;;16.80;99.90;;;;;;4976581;28;20474;-75
2021/08/20 02:18:18;;;;;;;7.95;6.82;;;16.80;99.90;;;;;;4995188;28;20094;-75
2021/08/20 02:20:44;;;;;;;7.82;7.03;;;16.90;99.90;;;;;;4981083;28;20101;-74
2021/08/20 02:23:10;;;;;;;7.28;6.57;;;16.70;99.90;;;;;;5002131;28;20473;-74
2021/08/20 02:25:35;;;;;;;8.43;6.88;;;16.60;99.90;;;;;;4994608;28;20030;-74
2021/08/20 02:28:02;;;;;;;9.10;7.15;;;16.70;99.90;;;;;;5008112;28;20030;-74
2021/08/20 02:30:28;;;;;;;7.70;6.50;;;16.80;99.90;;;;;;5005008;28;20030;-74
2021/08/20 02:32:53;;;;;;;9.13;7.07;;;16.70;99.90;;;;;;5007870;28;20031;-74
2021/08/20 02:35:19;;;;;;;9.40;7.30;;;16.60;99.90;;;;;;5005734;28;20472;-74
2021/08/20 02:37:44;;;;;;;8.18;6.90;;;16.60;99.90;;;;;;5011128;28;20019;-74
2021/08/20 02:40:10;;;;;;;9.38;7.22;;;16.50;99.90;;;;;;4995730;28;20485;-74
2021/08/20 02:42:36;;;;;;;8.25;7.35;;;16.70;99.90;;;;;;5008870;28;20535;-74
2021/08/20 02:45:02;;;;;;;9.40;7.60;;;16.80;99.90;;;;;;5006670;28;20044;-74
2021/08/20 02:47:27;;;;;;;9.93;7.70;;;16.70;99.90;;;;;;5000027;28;20073;-74
2021/08/20 02:49:53;;;;;;;8.38;7.35;;;16.60;99.90;;;;;;5003141;28;20070;-73
2021/08/20 02:52:18;;;;;;;9.63;7.20;;;16.60;99.90;;;;;;5005883;28;20026;-73
2021/08/20 02:54:44;;;;;;;8.18;7.38;;;16.50;99.90;;;;;;4993842;28;20124;-73
2021/08/20 02:57:09;;;;;;;9.60;7.40;;;16.50;99.90;;;;;;5008820;28;20064;-73
2021/08/20 02:59:35;;;;;;;8.45;7.57;;;16.50;99.90;;;;;;4997111;28;20033;-73
2021/08/20 03:02:00;;;;;;;8.23;7.25;;;16.60;99.90;;;;;;5002079;28;20121;-73
2021/08/20 03:04:26;;;;;;;8.35;7.20;;;16.60;99.90;;;;;;5003122;28;20034;-73
2021/08/20 03:06:53;;;;;;;10.70;7.20;;;16.70;99.90;;;;;;5006938;28;20032;-74
2021/08/20 03:09:20;;;;;;;8.25;7.45;;;16.80;99.90;;;;;;4993842;28;20026;-72
2021/08/20 03:11:47;;;;;;;9.38;8.30;;;16.90;99.90;;;;;;4997693;28;20116;-73
2021/08/20 03:14:12;;;;;;;7.90;7.10;;;16.80;99.90;;;;;;5002706;28;20118;-74
2021/08/20 03:16:38;;;;;;;9.35;7.53;;;16.80;99.90;;;;;;4993596;28;20113;-74
2021/08/20 03:19:04;;;;;;;8.57;7.20;;;16.70;99.90;;;;;;4993683;28;20084;-74
2021/08/20 03:21:29;;;;;;;8.88;7.60;;;16.70;99.90;;;;;;4998577;28;20030;-74
2021/08/20 03:23:55;;;;;;;8.15;7.30;;;16.60;99.90;;;;;;5009337;28;20014;-74
2021/08/20 03:26:22;;;;;;;9.20;7.47;;;16.80;99.90;;;;;;4999655;28;20033;-74
2021/08/20 03:28:49;;;;;;;8.20;7.40;;;16.80;99.90;;;;;;5013037;28;20056;-74
2021/08/20 03:31:15;;;;;;;9.23;7.78;;;16.80;99.90;;;;;;5013041;28;20046;-74
2021/08/20 03:33:41;;;;;;;10.20;7.68;;;16.80;99.90;;;;;;5001211;28;20066;-74
2021/08/20 03:36:07;;;;;;;9.23;7.13;;;16.80;99.90;;;;;;4998370;28;20033;-74
2021/08/20 03:38:32;;;;;;;10.02;7.97;;;16.80;99.90;;;;;;5000175;28;20030;-74
2021/08/20 03:40:58;;;;;;;8.27;7.43;;;16.80;99.90;;;;;;5006466;28;20023;-74
2021/08/20 03:43:24;;;;;;;8.75;7.70;;;16.70;99.90;;;;;;4992830;28;20104;-74
2021/08/20 03:45:49;;;;;;;9.07;7.88;;;16.70;99.90;;;;;;5004554;28;20037;-75
2021/08/20 03:48:15;;;;;;;8.82;7.93;;;16.60;99.90;;;;;;4993960;28;20495;-74
2021/08/20 03:50:40;;;;;;;7.95;7.07;;;16.70;99.90;;;;;;5006020;28;20529;-75
2021/08/20 03:53:06;;;;;;;9.50;7.47;;;16.60;99.90;;;;;;5004447;28;20079;-74
2021/08/20 03:55:31;;;;;;;9.38;8.27;;;16.60;99.90;;;;;;5007509;28;20038;-73
2021/08/20 03:57:57;;;;;;;9.18;8.18;;;16.50;99.90;;;;;;5003265;28;20037;-74
2021/08/20 04:00:22;;;;;;;9.00;7.43;;;16.50;99.90;;;;;;4999293;28;20028;-74
2021/08/20 04:02:48;;;;;;;10.25;7.80;;;16.50;99.90;;;;;;5012533;28;20498;-74
2021/08/20 04:05:14;;;;;;;8.85;7.95;;;16.60;99.90;;;;;;4998983;28;20536;-74
2021/08/20 04:07:39;;;;;;;8.15;7.38;;;16.70;99.90;;;;;;5007227;28;20365;-74
2021/08/20 04:10:05;;;;;;;8.70;7.88;;;16.80;99.90;;;;;;4999144;28;20034;-74
2021/08/20 04:12:31;;;;;;;10.30;8.18;;;16.80;99.90;;;;;;5000228;28;20027;-74
2021/08/20 04:14:56;;;;;;;9.57;8.57;;;16.80;99.90;;;;;;4999051;28;20527;-74
2021/08/20 04:17:22;;;;;;;9.27;8.38;;;16.80;99.90;;;;;;5003591;28;20061;-74
2021/08/20 04:19:47;;;;;;;10.27;8.48;;;16.80;99.90;;;;;;4999180;28;20032;-74
2021/08/20 04:22:13;;;;;;;9.10;8.13;;;16.80;99.90;;;;;;5001217;28;20045;-74
2021/08/20 04:24:41;;;;;;;9.25;7.90;;;16.80;99.90;;;;;;5005670;28;20073;-75
2021/08/20 04:27:08;;;;;;;10.15;8.20;;;16.70;99.90;;;;;;5003792;28;20492;-73
2021/08/20 04:29:34;;;;;;;8.85;7.95;;;16.60;99.90;;;;;;4997916;28;20030;-74
2021/08/20 04:32:00;;;;;;;9.40;8.13;;;16.70;99.90;;;;;;5000592;28;20085;-73
2021/08/20 04:34:25;;;;;;;9.18;8.05;;;16.60;99.90;;;;;;4998666;28;20483;-74
2021/08/20 04:36:51;;;;;;;10.32;8.60;;;16.50;99.90;;;;;;5000676;28;20029;-74
2021/08/20 04:39:17;;;;;;;10.00;8.00;;;16.40;99.90;;;;;;5005625;28;20404;-74
2021/08/20 04:41:42;;;;;;;8.80;7.97;;;16.50;99.90;;;;;;5003687;28;20465;-73
2021/08/20 04:44:08;;;;;;;9.07;8.18;;;16.60;99.90;;;;;;4998916;28;20030;-75
2021/08/20 04:46:33;;;;;;;11.20;9.20;;;16.70;99.90;;;;;;5011967;28;20029;-75
2021/08/20 04:48:59;;;;;;;10.10;8.38;;;16.80;99.90;;;;;;4998833;28;20469;-74
2021/08/20 04:51:24;;;;;;;9.65;8.35;;;16.50;99.90;;;;;;5000696;28;20485;-75
2021/08/20 04:53:51;;;;;;;9.75;8.75;;;16.50;99.90;;;;;;4992267;28;20098;-75
2021/08/20 04:56:17;;;;;;;10.25;8.55;;;16.50;99.90;;;;;;5004964;28;20044;-73
2021/08/20 04:58:42;;;;;;;9.75;8.30;;;16.60;99.90;;;;;;5002670;28;20469;-74
2021/08/20 05:01:08;;;;;;;11.43;8.40;;;16.70;99.90;;;;;;5004754;28;20037;-74
2021/08/20 05:03:34;;;;;;;10.23;9.15;;;16.80;99.90;;;;;;5009293;28;20457;-74
2021/08/20 05:06:00;;;;;;;10.00;8.93;;;16.80;99.90;;;;;;5006783;28;20113;-75
2021/08/20 05:08:26;;;;;;;10.98;9.15;;;16.80;99.90;;;;;;5001139;28;20558;-74
2021/08/20 05:10:52;;;;;;;12.68;10.35;;;16.70;99.90;;;;;;5005040;28;20035;-74
2021/08/20 05:13:17;;;;;;;15.75;13.73;;;16.90;99.90;;;;;;5008911;28;20041;-72
2021/08/20 05:15:43;;;;;;;21.17;17.20;;;16.80;99.90;;;;;;4995688;28;20030;-73
2021/08/20 05:18:09;;;;;;;20.48;16.52;;;16.80;99.90;;;;;;5013059;28;20056;-73
2021/08/20 05:20:35;;;;;;;12.63;11.30;;;16.80;99.90;;;;;;5004572;28;20163;-73
2021/08/20 05:23:00;;;;;;;12.18;9.32;;;16.90;99.90;;;;;;4997129;28;20061;-73
2021/08/20 05:25:31;;;;;;;12.20;8.88;;;17.00;99.90;;;;;;4994333;28;20038;-73
2021/08/20 05:27:56;;;;;;;8.90;8.00;;;17.10;99.90;;;;;;4999202;28;20041;-73
2021/08/20 05:30:22;;;;;;;11.80;10.32;;;17.10;99.90;;;;;;5004207;28;20030;-74
2021/08/20 05:32:47;;;;;;;66.00;38.95;;;17.10;99.90;;;;;;5008615;28;20038;-74
2021/08/20 05:35:14;;;;;;;212.07;116.68;;;16.90;99.90;;;;;;4995339;28;20070;-75
2021/08/20 05:37:40;;;;;;;64.13;38.63;;;16.90;99.90;;;;;;4999072;28;20022;-74
2021/08/20 05:40:06;;;;;;;30.50;20.83;;;16.90;99.90;;;;;;5003836;28;20421;-75
2021/08/20 05:42:32;;;;;;;36.08;25.17;;;16.80;99.90;;;;;;5008657;28;20034;-75
2021/08/20 05:44:57;;;;;;;24.80;18.75;;;16.90;99.90;;;;;;5005177;28;20037;-75
2021/08/20 05:47:23;;;;;;;20.83;16.10;;;16.80;99.90;;;;;;5001842;28;20036;-75
2021/08/20 05:49:50;;;;;;;14.05;10.57;;;16.90;99.90;;;;;;5003910;28;20477;-75
2021/08/20 05:52:16;;;;;;;11.27;10.15;;;17.00;99.90;;;;;;5008671;28;20060;-75
2021/08/20 05:54:42;;;;;;;14.82;11.02;;;17.00;99.90;;;;;;5004691;28;20029;-75
2021/08/20 05:57:07;;;;;;;11.43;10.05;;;17.10;99.90;;;;;;5001651;28;20026;-75
2021/08/20 05:59:33;;;;;;;12.23;10.30;;;16.90;99.90;;;;;;5014913;28;20037;-75
2021/08/20 06:01:59;;;;;;;11.77;10.50;;;16.90;99.90;;;;;;5001784;28;20097;-75
2021/08/20 06:04:24;;;;;;;11.18;9.48;;;17.10;99.90;;;;;;5003619;28;20030;-75
2021/08/20 06:06:50;;;;;;;11.43;10.23;;;17.00;99.90;;;;;;5007940;28;20031;-74
2021/08/20 06:09:15;;;;;;;13.23;10.07;;;17.00;99.90;;;;;;5005783;28;20030;-74
2021/08/20 06:11:41;;;;;;;10.95;9.82;;;17.00;99.90;;;;;;5000059;28;20030;-74
2021/08/20 06:14:07;;;;;;;13.23;10.13;;;17.00;99.90;;;;;;5003475;28;20393;-74
2021/08/20 06:16:32;;;;;;;10.27;9.27;;;17.10;99.90;;;;;;5008137;28;20033;-74
2021/08/20 06:18:58;;;;;;;12.63;10.68;;;16.90;99.90;;;;;;5005417;28;20033;-75
2021/08/20 06:21:23;;;;;;;10.85;9.75;;;16.90;99.90;;;;;;4996911;28;20037;-75
2021/08/20 06:23:49;;;;;;;12.90;10.10;;;17.00;99.90;;;;;;5005541;28;20018;-75
2021/08/20 06:26:15;;;;;;;11.27;9.68;;;17.00;99.90;;;;;;5010350;28;20532;-76
2021/08/20 06:28:41;;;;;;;11.95;10.65;;;17.00;99.90;;;;;;4994760;28;20023;-73
2021/08/20 06:31:06;;;;;;;12.27;9.90;;;17.00;99.90;;;;;;4994639;28;20100;-73
2021/08/20 06:33:33;;;;;;;11.63;10.30;;;16.90;99.90;;;;;;4994559;28;20081;-73
2021/08/20 06:35:58;;;;;;;12.18;10.55;;;16.80;99.90;;;;;;5007461;28;20030;-74
2021/08/20 06:38:24;;;;;;;13.48;10.15;;;16.80;99.90;;;;;;5003786;28;20076;-74
2021/08/20 06:40:50;;;;;;;12.80;10.38;;;16.80;99.90;;;;;;5014131;28;20022;-74
2021/08/20 06:43:16;;;;;;;13.07;10.48;;;16.70;99.90;;;;;;5013971;28;20026;-74
2021/08/20 06:45:41;;;;;;;12.18;10.48;;;16.80;99.90;;;;;;5013895;28;20041;-74
2021/08/20 06:48:07;;;;;;;13.65;11.05;;;16.80;99.90;;;;;;5013869;28;20112;-74
2021/08/20 06:50:33;;;;;;;14.85;11.23;;;16.90;99.90;;;;;;5009983;28;20038;-74
2021/08/20 06:52:58;;;;;;;12.18;10.80;;;16.90;99.90;;;;;;4994295;28;20084;-74
2021/08/20 06:55:24;;;;;;;15.00;11.88;;;17.00;99.90;;;;;;5007127;28;20045;-74
2021/08/20 06:57:49;;;;;;;13.32;11.02;;;17.10;99.90;;;;;;5004331;28;20030;-74
2021/08/20 07:00:15;;;;;;;15.07;12.13;;;17.20;99.90;;;;;;4996851;28;20034;-74
2021/08/20 07:02:45;;;;;;;15.18;11.90;;;17.20;99.90;;;;;;5004238;28;20029;-74
2021/08/20 07:05:12;;;;;;;12.65;11.13;;;17.20;99.90;;;;;;4996110;28;20022;-73
2021/08/20 07:07:39;;;;;;;13.48;11.90;;;17.20;99.90;;;;;;5004925;28;20030;-73
2021/08/20 07:10:11;;;;;;;16.33;11.50;;;17.30;99.90;;;;;;5013457;28;20030;-74
2021/08/20 07:12:38;;;;;;;13.90;12.05;;;17.30;99.90;;;;;;5001244;28;20030;-73
2021/08/20 07:15:05;;;;;;;13.75;12.30;;;17.30;99.90;;;;;;5012244;28;20476;-73
2021/08/20 07:17:30;;;;;;;14.30;11.70;;;17.40;99.90;;;;;;4999844;28;20030;-73
2021/08/20 07:19:56;;;;;;;14.27;11.70;;;17.40;99.90;;;;;;5010393;28;20022;-73
2021/08/20 07:22:22;;;;;;;12.98;11.57;;;17.30;99.90;;;;;;4999910;28;20125;-75
2021/08/20 07:24:47;;;;;;;14.48;12.98;;;17.50;99.90;;;;;;5006683;28;20041;-73
2021/08/20 07:27:13;;;;;;;13.13;11.75;;;17.50;99.90;;;;;;4993653;28;20049;-73
2021/08/20 07:29:38;;;;;;;14.10;11.85;;;17.60;99.90;;;;;;5006609;28;20035;-73
2021/08/20 07:32:04;;;;;;;17.48;12.75;;;17.60;99.90;;;;;;5005286;28;20030;-73
2021/08/20 07:34:30;;;;;;;19.38;13.48;;;17.60;99.90;;;;;;4999806;28;20030;-73
2021/08/20 07:36:55;;;;;;;16.50;13.50;;;17.70;99.90;;;;;;5013102;28;20026;-74
2021/08/20 07:39:21;;;;;;;12.13;10.82;;;17.80;99.90;;;;;;4999869;28;20030;-73
2021/08/20 07:41:46;;;;;;;12.10;10.85;;;17.90;99.90;;;;;;5001230;28;20023;-73
2021/08/20 07:44:14;;;;;;;12.05;10.40;;;17.90;99.90;;;;;;4991966;28;20033;-73
2021/08/20 07:46:42;;;;;;;11.13;9.82;;;18.10;99.90;;;;;;4992933;28;20393;-74
2021/08/20 07:49:08;;;;;;;11.50;10.30;;;18.10;99.90;;;;;;4997019;28;20037;-73
2021/08/20 07:51:34;;;;;;;14.20;10.00;;;18.10;99.90;;;;;;5000757;28;20412;-73
2021/08/20 07:53:59;;;;;;;11.05;9.80;;;18.10;99.90;;;;;;4993136;28;20511;-73
2021/08/20 07:56:25;;;;;;;11.27;10.00;;;18.20;99.90;;;;;;4992684;28;20026;-74
2021/08/20 07:58:51;;;;;;;15.23;9.93;;;18.10;99.90;;;;;;4992661;28;20037;-73
2021/08/20 08:01:17;;;;;;;12.02;9.52;;;18.10;99.90;;;;;;4990323;28;20034;-74
2021/08/20 08:03:42;;;;;;;11.05;9.55;;;18.20;99.90;;;;;;5005441;28;20057;-73
2021/08/20 08:06:12;;;;;;;13.80;10.38;;;18.30;99.90;;;;;;4992850;28;20062;-74
2021/08/20 08:08:37;;;;;;;11.60;9.85;;;18.50;99.90;;;;;;5006344;28;20563;-73
2021/08/20 08:11:03;;;;;;;11.23;10.02;;;18.50;99.90;;;;;;5003293;28;20033;-74
2021/08/20 08:13:29;;;;;;;11.40;10.07;;;18.30;99.90;;;;;;4999219;28;20025;-73
2021/08/20 08:15:54;;;;;;;11.30;10.10;;;18.40;99.90;;;;;;5012269;28;20029;-73
2021/08/20 08:18:20;;;;;;;11.40;10.18;;;18.50;99.90;;;;;;5006714;28;20037;-73
2021/08/20 08:20:45;;;;;;;13.88;11.35;;;18.50;99.90;;;;;;4992777;28;20027;-74
2021/08/20 08:23:11;;;;;;;12.43;10.77;;;18.20;99.90;;;;;;5000734;28;20100;-74
2021/08/20 08:25:36;;;;;;;10.95;9.60;;;18.10;99.90;;;;;;4999976;28;20068;-73
2021/08/20 08:28:02;;;;;;;16.73;9.38;;;18.10;99.90;;;;;;4994889;28;20053;-74
2021/08/20 08:30:36;;;;;;;11.85;8.98;;;18.20;99.90;;;;;;5004813;28;20026;-74
2021/08/20 08:33:03;;;;;;;14.63;9.50;;;18.30;99.90;;;;;;5005243;28;20022;-73
2021/08/20 08:35:29;;;;;;;11.93;8.38;;;18.60;99.90;;;;;;4992450;28;20485;-73
2021/08/20 08:38:04;;;;;;;12.43;9.02;;;18.70;99.90;;;;;;5012216;28;20030;-74
2021/08/20 08:40:30;;;;;;;11.73;8.75;;;18.70;99.90;;;;;;5010348;28;20033;-73
2021/08/20 08:42:57;;;;;;;9.93;8.25;;;18.70;99.90;;;;;;4992480;28;20018;-73
2021/08/20 08:45:23;;;;;;;11.90;9.20;;;18.80;99.90;;;;;;4992312;28;20034;-74
2021/08/20 08:47:51;;;;;;;9.35;7.70;;;18.70;99.90;;;;;;4992537;28;20455;-73
2021/08/20 08:50:18;;;;;;;11.00;8.18;;;18.60;99.90;;;;;;4994210;28;20038;-74
2021/08/20 08:52:43;;;;;;;9.05;6.75;;;18.60;99.90;;;;;;5003194;28;20485;-74
2021/08/20 08:55:09;;;;;;;9.93;7.35;;;18.60;99.90;;;;;;5005206;28;20087;-74
2021/08/20 08:57:35;;;;;;;11.13;7.30;;;18.80;99.90;;;;;;4992371;28;20680;-74
2021/08/20 09:00:01;;;;;;;9.10;7.45;;;19.10;99.90;;;;;;5007227;28;20034;-74
2021/08/20 09:02:30;;;;;;;7.68;6.88;;;19.30;99.90;;;;;;5003538;28;20029;-74
2021/08/20 09:04:58;;;;;;;9.25;7.32;;;19.30;99.90;;;;;;4999517;28;20027;-74
2021/08/20 09:07:25;;;;;;;7.65;6.50;;;19.40;99.90;;;;;;5001051;28;20033;-74
2021/08/20 09:10:09;;;;;;;8.77;7.15;;;19.50;99.90;;;;;;5009320;28;20026;-74
2021/08/20 09:12:35;;;;;;;9.20;8.20;;;19.50;99.90;;;;;;4992251;28;20030;-74
2021/08/20 09:15:00;;;;;;;10.25;7.80;;;19.30;99.90;;;;;;5004925;28;20030;-74
2021/08/20 09:17:32;;;;;;;9.48;7.82;;;19.40;99.90;;;;;;4992234;28;20033;-74
2021/08/20 09:20:27;;;;;;;9.23;8.30;;;19.30;99.90;;;;;;4992132;28;20034;-74
2021/08/20 09:22:55;;;;;;;9.75;7.80;;;19.20;99.90;;;;;;4990845;28;20093;-74
2021/08/20 09:25:47;;;;;;;8.02;7.22;;;19.90;99.90;;;;;;4990572;28;20037;-74
2021/08/20 09:28:26;;;;;;;7.55;6.85;;;20.30;99.90;;;;;;4973176;28;20065;-74
2021/08/20 09:30:55;;;;;;;9.95;8.02;;;20.70;99.90;;;;;;4972641;28;20559;-74
2021/08/20 09:33:28;;;;;;;9.35;7.50;;;20.80;99.90;;;;;;4972710;28;20026;-74
2021/08/20 09:36:06;;;;;;;10.05;8.13;;;20.90;99.90;;;;;;5001482;28;20110;-74
2021/08/20 09:38:40;;;;;;;7.85;6.75;;;21.00;99.90;;;;;;5002949;28;20026;-74
2021/08/20 09:41:10;;;;;;;8.20;6.80;;;21.10;99.90;;;;;;5006325;28;20102;-74
2021/08/20 09:43:37;;;;;;;7.88;6.57;;;21.00;99.90;;;;;;4994549;28;20376;-74
2021/08/20 09:46:11;;;;;;;8.40;7.35;;;20.70;99.90;;;;;;5001414;28;20049;-74
2021/08/20 09:48:52;;;;;;;8.20;6.82;;;20.70;99.90;;;;;;5007017;28;20042;-74
2021/08/20 09:51:30;;;;;;;7.75;6.70;;;20.10;99.90;;;;;;4993868;28;20166;-74
2021/08/20 09:54:03;;;;;;;6.82;6.13;;;20.10;99.90;;;;;;4998472;28;20024;-74
2021/08/20 09:56:30;;;;;;;6.53;5.93;;;20.10;99.90;;;;;;5014710;28;20025;-74
2021/08/20 09:58:59;;;;;;;7.55;5.53;;;20.30;99.90;;;;;;4996251;28;20023;-74
2021/08/20 10:01:27;;;;;;;6.25;5.53;;;20.40;99.90;;;;;;5000087;28;20381;-74
2021/08/20 10:03:56;;;;;;;7.60;5.38;;;20.20;99.90;;;;;;5007891;28;20069;-74
2021/08/20 10:06:24;;;;;;;6.32;5.63;;;20.20;99.90;;;;;;5012734;28;20060;-74
2021/08/20 10:08:50;;;;;;;8.35;5.22;;;20.60;99.90;;;;;;5007068;28;20026;-74
2021/08/20 10:11:17;;;;;;;6.63;5.60;;;21.00;99.90;;;;;;5011282;28;20024;-74
2021/08/20 10:13:43;;;;;;;5.75;4.97;;;21.10;99.90;;;;;;5014418;28;20485;-74
2021/08/20 10:16:10;;;;;;;6.22;5.18;;;21.30;99.90;;;;;;5009361;28;20109;-73
2021/08/20 10:18:37;;;;;;;6.68;5.32;;;21.10;99.90;;;;;;5014522;28;20026;-74
2021/08/20 10:21:03;;;;;;;6.25;5.25;;;21.40;99.90;;;;;;5007414;28;20010;-74
2021/08/20 10:23:31;;;;;;;7.43;5.47;;;21.60;99.90;;;;;;5014527;28;20104;-74
2021/08/20 10:25:56;;;;;;;7.53;5.78;;;21.80;99.90;;;;;;5007339;28;20049;-74
2021/08/20 10:28:23;;;;;;;8.20;6.30;;;21.70;99.90;;;;;;5000727;28;20425;-74
2021/08/20 10:30:50;;;;;;;6.00;5.40;;;21.20;99.90;;;;;;5012866;28;20026;-74
2021/08/20 10:33:29;;;;;;;6.72;4.88;;;21.70;99.90;;;;;;4997225;28;20022;-74
2021/08/20 10:35:56;;;;;;;6.85;4.93;;;22.10;99.90;;;;;;5003218;28;20065;-74
2021/08/20 10:38:44;;;;;;;6.55;5.45;;;21.80;99.90;;;;;;5004122;28;20117;-74
2021/08/20 10:41:16;;;;;;;6.20;5.60;;;21.00;99.90;;;;;;4997671;28;20093;-74
2021/08/20 10:43:56;;;;;;;5.70;4.57;;;20.70;99.90;;;;;;5013856;28;20113;-74
2021/08/20 10:46:34;;;;;;;6.75;4.88;;;20.60;99.90;;;;;;5010913;28;20057;-74
2021/08/20 10:49:12;;;;;;;8.05;4.65;;;20.40;99.90;;;;;;5007369;28;20072;-74
2021/08/20 10:51:58;;;;;;;7.25;4.72;;;20.30;99.90;;;;;;5005725;28;20038;-74
2021/08/20 10:54:37;;;;;;;7.03;5.30;;;20.80;99.90;;;;;;5008863;28;20027;-73
2021/08/20 10:57:06;;;;;;;5.68;4.93;;;21.00;99.90;;;;;;5010222;28;20067;-74
2021/08/20 10:59:38;;;;;;;5.80;4.50;;;21.40;99.90;;;;;;5002093;28;20469;-74
2021/08/20 11:02:18;;;;;;;7.20;5.00;;;21.80;99.90;;;;;;5005939;28;20109;-73
2021/08/20 11:05:03;;;;;;;4.78;4.30;;;22.00;99.90;;;;;;4991171;28;20070;-74
2021/08/20 11:07:35;;;;;;;6.32;4.78;;;22.00;99.90;;;;;;4996820;28;20029;-74
2021/08/20 11:10:10;;;;;;;4.43;4.03;;;22.00;99.90;;;;;;5001624;28;20032;-74
2021/08/20 11:12:48;;;;;;;5.73;4.40;;;22.30;99.90;;;;;;4993811;28;20076;-74
2021/08/20 11:15:25;;;;;;;3.95;3.60;;;22.60;99.90;;;;;;5006839;28;20022;-74
2021/08/20 11:17:58;;;;;;;5.00;4.15;;;22.80;99.90;;;;;;4999059;28;20581;-74
2021/08/20 11:20:42;;;;;;;38.72;16.75;;;22.70;99.90;;;;;;5009007;28;20488;-74
2021/08/20 11:23:08;;;;;;;4.32;3.20;;;22.70;99.90;;;;;;5007212;28;20510;-74
2021/08/20 11:25:45;;;;;;;4.35;3.50;;;23.10;99.90;;;;;;5004824;28;20049;-74
2021/08/20 11:28:26;;;;;;;5.10;3.63;;;23.30;99.90;;;;;;5004777;28;20105;-74
2021/08/20 11:31:08;;;;;;;3.72;3.10;;;22.30;99.90;;;;;;5007176;28;20050;-74
2021/08/20 11:33:38;;;;;;;3.20;2.90;;;22.40;99.90;;;;;;4994498;28;20034;-74
2021/08/20 11:36:07;;;;;;;21.30;9.45;;;22.20;99.90;;;;;;5008336;28;20488;-74
2021/08/20 11:38:34;;;;;;;3.60;3.30;;;21.80;99.90;;;;;;5001840;28;20101;-75
2021/08/20 11:41:05;;;;;;;5.75;3.72;;;21.60;99.90;;;;;;5007812;28;20456;-74
2021/08/20 11:43:32;;;;;;;4.35;3.60;;;21.50;99.90;;;;;;4999706;28;20023;-74
2021/08/20 11:45:59;;;;;;;9.02;4.70;;;21.60;99.90;;;;;;5006079;28;20022;-73
2021/08/20 11:48:25;;;;;;;5.78;3.50;;;21.70;99.90;;;;;;5005655;28;20026;-74
2021/08/20 11:50:50;;;;;;;5.35;3.10;;;22.60;99.90;;;;;;4994174;28;20390;-73
2021/08/20 11:53:23;;;;;;;5.15;3.53;;;23.00;99.90;;;;;;4993003;28;20026;-74
2021/08/20 11:55:50;;;;;;;3.72;3.25;;;22.80;99.90;;;;;;4979795;28;20046;-74
2021/08/20 11:58:29;;;;;;;4.57;3.40;;;22.80;99.90;;;;;;4992798;28;20089;-72
2021/08/20 12:00:55;;;;;;;4.15;3.75;;;23.20;99.90;;;;;;4992787;28;20542;-73
2021/08/20 12:03:20;;;;;;;5.10;4.03;;;23.70;99.90;;;;;;4994601;28;20097;-74
2021/08/20 12:05:46;;;;;;;3.42;3.13;;;23.70;99.90;;;;;;5012003;28;20113;-76
2021/08/20 12:08:16;;;;;;;4.78;3.45;;;22.50;99.90;;;;;;4998112;28;20429;-74
2021/08/20 12:10:44;;;;;;;3.67;3.05;;;22.80;99.90;;;;;;5012372;28;20117;-73
2021/08/20 12:13:12;;;;;;;3.88;3.20;;;23.60;99.90;;;;;;5012324;28;20392;-73
2021/08/20 12:15:38;;;;;;;3.97;3.20;;;23.90;99.90;;;;;;4995787;28;20029;-73
2021/08/20 12:18:21;;;;;;;4.75;3.47;;;23.50;99.90;;;;;;4992587;28;20385;-73
2021/08/20 12:20:46;;;;;;;3.40;3.10;;;24.00;99.90;;;;;;4990219;28;20030;-73
2021/08/20 12:23:12;;;;;;;3.60;3.22;;;24.40;99.90;;;;;;4992168;28;20026;-75
2021/08/20 12:25:41;;;;;;;4.22;3.00;;;24.70;99.90;;;;;;4992385;28;20034;-74
2021/08/20 12:28:14;;;;;;;3.58;3.05;;;24.00;99.90;;;;;;5011241;28;20480;-74
2021/08/20 12:30:41;;;;;;;3.45;3.03;;;24.30;99.90;;;;;;4990782;28;20026;-75
2021/08/20 12:33:07;;;;;;;4.68;2.63;;;24.40;99.90;;;;;;4992438;28;20027;-75
2021/08/20 12:35:34;;;;;;;3.03;2.72;;;23.70;99.90;;;;;;4992198;28;20076;-74
2021/08/20 12:38:20;;;;;;;2.90;2.63;;;23.50;99.90;;;;;;4991189;28;20083;-74
2021/08/20 12:41:02;;;;;;;3.38;3.03;;;23.20;99.90;;;;;;4996089;28;20515;-73
2021/08/20 12:43:35;;;;;;;3.60;3.15;;;24.40;99.90;;;;;;4999472;28;20088;-74